sensor_id;sensor_type;location;lat;lon;timestamp;P1;durP1;ratioP1;P2;durP2;ratioP2
67051;SDS011;53957;47.222;18.670;2022-09-30T04:58:57;10.00;;;8.43;;
67051;SDS011;53957;47.222;18.670;2022-09-30T05:02:20;11.32;;;9.25;;
67051;SDS011;53957;47.222;18.670;2022-09-30T05:08:54;14.40;;;9.88;;
67051;SDS011;53957;47.222;18.670;2022-09-30T05:11:59;11.45;;;9.10;;
67051;SDS011;53957;47.222;18.670;2022-09-30T05:15:24;13.85;;;10.60;;
67051;SDS011;53957;47.222;18.670;2022-09-30T05:18:57;13.15;;;10.38;;
67051;SDS011;53957;47.222;18.670;2022-09-30T05:22:02;15.82;;;9.88;;
67051;SDS011;53957;47.222;18.670;2022-09-30T05:25:15;12.82;;;10.25;;
67051;SDS011;53957;47.222;18.670;2022-09-30T05:28:19;12.65;;;10.05;;
67051;SDS011;53957;47.222;18.670;2022-09-30T05:31:22;13.48;;;10.65;;
67051;SDS011;53957;47.222;18.670;2022-09-30T05:34:25;14.07;;;10.65;;
67051;SDS011;53957;47.222;18.670;2022-09-30T05:37:28;15.02;;;10.77;;
67051;SDS011;53957;47.222;18.670;2022-09-30T05:40:35;14.73;;;10.38;;
67051;SDS011;53957;47.222;18.670;2022-09-30T05:43:40;14.18;;;10.15;;
67051;SDS011;53957;47.222;18.670;2022-09-30T05:46:46;12.20;;;10.35;;
67051;SDS011;53957;47.222;18.670;2022-09-30T05:50:09;12.43;;;9.65;;
67051;SDS011;53957;47.222;18.670;2022-09-30T05:53:12;12.55;;;10.07;;
67051;SDS011;53957;47.222;18.670;2022-09-30T05:56:16;11.68;;;9.55;;
67051;SDS011;53957;47.222;18.670;2022-09-30T05:59:20;11.32;;;9.77;;
67051;SDS011;53957;47.222;18.670;2022-09-30T06:02:23;12.05;;;9.77;;
67051;SDS011;53957;47.222;18.670;2022-09-30T06:05:28;11.48;;;10.18;;
67051;SDS011;53957;47.222;18.670;2022-09-30T06:08:32;15.07;;;11.18;;
67051;SDS011;53957;47.222;18.670;2022-09-30T06:11:35;15.60;;;12.13;;
67051;SDS011;53957;47.222;18.670;2022-09-30T06:14:38;13.48;;;11.10;;
67051;SDS011;53957;47.222;18.670;2022-09-30T06:17:43;14.93;;;11.30;;
67051;SDS011;53957;47.222;18.670;2022-09-30T06:20:48;12.70;;;9.50;;
67051;SDS011;53957;47.222;18.670;2022-09-30T06:24:08;10.77;;;9.57;;
67051;SDS011;53957;47.222;18.670;2022-09-30T06:27:14;10.55;;;8.52;;
67051;SDS011;53957;47.222;18.670;2022-09-30T06:30:20;10.52;;;8.98;;
67051;SDS011;53957;47.222;18.670;2022-09-30T06:33:23;11.68;;;9.43;;
67051;SDS011;53957;47.222;18.670;2022-09-30T06:36:27;11.63;;;9.23;;
67051;SDS011;53957;47.222;18.670;2022-09-30T06:39:30;12.07;;;9.63;;
67051;SDS011;53957;47.222;18.670;2022-09-30T06:42:33;9.88;;;8.45;;
67051;SDS011;53957;47.222;18.670;2022-09-30T06:45:36;10.95;;;9.50;;
67051;SDS011;53957;47.222;18.670;2022-09-30T06:48:40;11.93;;;9.18;;
67051;SDS011;53957;47.222;18.670;2022-09-30T06:52:01;9.07;;;8.18;;
67051;SDS011;53957;47.222;18.670;2022-09-30T06:55:04;11.95;;;8.70;;
67051;SDS011;53957;47.222;18.670;2022-09-30T06:58:08;10.43;;;9.32;;
67051;SDS011;53957;47.222;18.670;2022-09-30T07:01:16;10.60;;;9.50;;
67051;SDS011;53957;47.222;18.670;2022-09-30T07:04:19;13.07;;;9.88;;
67051;SDS011;53957;47.222;18.670;2022-09-30T07:10:38;16.37;;;11.57;;
67051;SDS011;53957;47.222;18.670;2022-09-30T07:13:45;16.52;;;12.80;;
67051;SDS011;53957;47.222;18.670;2022-09-30T07:16:49;17.55;;;11.55;;
67051;SDS011;53957;47.222;18.670;2022-09-30T07:19:55;19.67;;;12.00;;
67051;SDS011;53957;47.222;18.670;2022-09-30T07:22:58;14.48;;;10.90;;
67051;SDS011;53957;47.222;18.670;2022-09-30T07:26:02;14.63;;;11.00;;
67051;SDS011;53957;47.222;18.670;2022-09-30T07:29:07;14.48;;;10.27;;
67051;SDS011;53957;47.222;18.670;2022-09-30T07:32:31;10.02;;;8.70;;
67051;SDS011;53957;47.222;18.670;2022-09-30T07:35:34;10.70;;;7.93;;
67051;SDS011;53957;47.222;18.670;2022-09-30T07:39:01;12.20;;;8.98;;
67051;SDS011;53957;47.222;18.670;2022-09-30T07:45:48;10.48;;;8.25;;
67051;SDS011;53957;47.222;18.670;2022-09-30T07:48:52;8.02;;;7.12;;
67051;SDS011;53957;47.222;18.670;2022-09-30T07:51:58;7.45;;;6.72;;
67051;SDS011;53957;47.222;18.670;2022-09-30T07:55:02;7.35;;;6.65;;
67051;SDS011;53957;47.222;18.670;2022-09-30T07:58:07;6.25;;;5.65;;
67051;SDS011;53957;47.222;18.670;2022-09-30T08:01:12;6.72;;;5.97;;
67051;SDS011;53957;47.222;18.670;2022-09-30T08:04:18;6.97;;;6.28;;
67051;SDS011;53957;47.222;18.670;2022-09-30T08:07:23;7.00;;;5.87;;
67051;SDS011;53957;47.222;18.670;2022-09-30T08:10:26;5.28;;;4.68;;
67051;SDS011;53957;47.222;18.670;2022-09-30T08:13:29;4.57;;;4.18;;
67051;SDS011;53957;47.222;18.670;2022-09-30T08:16:32;5.15;;;4.37;;
67051;SDS011;53957;47.222;18.670;2022-09-30T08:19:35;3.67;;;3.37;;
67051;SDS011;53957;47.222;18.670;2022-09-30T08:22:38;3.17;;;2.92;;
67051;SDS011;53957;47.222;18.670;2022-09-30T08:25:41;3.12;;;2.83;;
67051;SDS011;53957;47.222;18.670;2022-09-30T08:28:44;3.28;;;2.42;;
67051;SDS011;53957;47.222;18.670;2022-09-30T08:31:48;2.37;;;2.28;;
67051;SDS011;53957;47.222;18.670;2022-09-30T08:34:55;2.95;;;2.60;;
67051;SDS011;53957;47.222;18.670;2022-09-30T08:37:58;3.25;;;2.95;;
67051;SDS011;53957;47.222;18.670;2022-09-30T08:44:40;2.92;;;2.60;;
67051;SDS011;53957;47.222;18.670;2022-09-30T08:47:59;4.93;;;2.80;;
67051;SDS011;53957;47.222;18.670;2022-09-30T08:51:27;2.73;;;2.50;;
67051;SDS011;53957;47.222;18.670;2022-09-30T08:54:36;2.30;;;2.15;;
67051;SDS011;53957;47.222;18.670;2022-09-30T08:57:43;2.20;;;2.10;;
67051;SDS011;53957;47.222;18.670;2022-09-30T09:00:49;2.35;;;2.15;;
67051;SDS011;53957;47.222;18.670;2022-09-30T09:03:59;3.05;;;1.92;;
67051;SDS011;53957;47.222;18.670;2022-09-30T09:14:38;2.10;;;1.90;;
67051;SDS011;53957;47.222;18.670;2022-09-30T09:17:55;2.15;;;1.80;;
67051;SDS011;53957;47.222;18.670;2022-09-30T09:24:44;4.93;;;3.10;;
67051;SDS011;53957;47.222;18.670;2022-09-30T09:28:02;2.12;;;1.90;;
67051;SDS011;53957;47.222;18.670;2022-09-30T09:31:15;2.28;;;2.08;;
67051;SDS011;53957;47.222;18.670;2022-09-30T09:34:22;1.70;;;1.60;;
67051;SDS011;53957;47.222;18.670;2022-09-30T09:44:23;2.10;;;2.00;;
67051;SDS011;53957;47.222;18.670;2022-09-30T09:47:39;2.10;;;1.50;;
67051;SDS011;53957;47.222;18.670;2022-09-30T09:54:05;1.30;;;1.30;;
67051;SDS011;53957;47.222;18.670;2022-09-30T09:57:17;1.70;;;1.60;;
67051;SDS011;53957;47.222;18.670;2022-09-30T10:00:26;1.83;;;1.58;;
67051;SDS011;53957;47.222;18.670;2022-09-30T10:03:49;1.20;;;1.20;;
67051;SDS011;53957;47.222;18.670;2022-09-30T10:07:12;1.48;;;1.33;;
67051;SDS011;53957;47.222;18.670;2022-09-30T10:10:17;1.27;;;1.27;;
67051;SDS011;53957;47.222;18.670;2022-09-30T10:13:47;1.70;;;1.60;;
67051;SDS011;53957;47.222;18.670;2022-09-30T10:16:48;1.40;;;1.40;;
67051;SDS011;53957;47.222;18.670;2022-09-30T10:19:53;2.05;;;1.52;;
67051;SDS011;53957;47.222;18.670;2022-09-30T10:23:06;2.37;;;1.92;;
67051;SDS011;53957;47.222;18.670;2022-09-30T10:32:37;1.20;;;1.20;;
67051;SDS011;53957;47.222;18.670;2022-09-30T10:35:51;1.40;;;1.30;;
67051;SDS011;53957;47.222;18.670;2022-09-30T10:38:58;1.10;;;1.10;;
67051;SDS011;53957;47.222;18.670;2022-09-30T10:45:19;0.82;;;0.82;;
67051;SDS011;53957;47.222;18.670;2022-09-30T10:48:25;0.82;;;0.80;;
67051;SDS011;53957;47.222;18.670;2022-09-30T10:51:33;0.73;;;0.73;;
67051;SDS011;53957;47.222;18.670;2022-09-30T10:54:54;0.70;;;0.70;;
67051;SDS011;53957;47.222;18.670;2022-09-30T11:01:28;5.22;;;0.80;;
67051;SDS011;53957;47.222;18.670;2022-09-30T11:04:41;0.62;;;0.62;;
67051;SDS011;53957;47.222;18.670;2022-09-30T11:14:20;0.65;;;0.65;;
67051;SDS011;53957;47.222;18.670;2022-09-30T11:20:52;0.60;;;0.60;;
67051;SDS011;53957;47.222;18.670;2022-09-30T11:24:00;0.60;;;0.60;;
67051;SDS011;53957;47.222;18.670;2022-09-30T11:27:21;0.60;;;0.60;;
67051;SDS011;53957;47.222;18.670;2022-09-30T11:33:46;0.52;;;0.52;;
67051;SDS011;53957;47.222;18.670;2022-09-30T11:46:54;1.98;;;0.85;;
67051;SDS011;53957;47.222;18.670;2022-09-30T11:56:31;0.62;;;0.62;;
67051;SDS011;53957;47.222;18.670;2022-09-30T11:59:47;2.87;;;1.60;;
67051;SDS011;53957;47.222;18.670;2022-09-30T12:03:06;4.32;;;1.30;;
67051;SDS011;53957;47.222;18.670;2022-09-30T12:06:20;2.47;;;1.37;;
67051;SDS011;53957;47.222;18.670;2022-09-30T12:12:48;1.60;;;1.50;;
67051;SDS011;53957;47.222;18.670;2022-09-30T12:15:59;1.17;;;1.17;;
67051;SDS011;53957;47.222;18.670;2022-09-30T12:19:15;1.65;;;1.52;;
67051;SDS011;53957;47.222;18.670;2022-09-30T12:22:37;1.42;;;1.33;;
67051;SDS011;53957;47.222;18.670;2022-09-30T12:26:00;1.48;;;1.37;;
67051;SDS011;53957;47.222;18.670;2022-09-30T12:29:11;1.87;;;1.73;;
67051;SDS011;53957;47.222;18.670;2022-09-30T12:39:31;1.30;;;1.30;;
67051;SDS011;53957;47.222;18.670;2022-09-30T12:49:25;4.62;;;1.50;;
67051;SDS011;53957;47.222;18.670;2022-09-30T12:52:31;2.00;;;1.50;;
67051;SDS011;53957;47.222;18.670;2022-09-30T12:55:37;2.00;;;1.80;;
67051;SDS011;53957;47.222;18.670;2022-09-30T13:01:45;0.90;;;0.90;;
67051;SDS011;53957;47.222;18.670;2022-09-30T13:04:50;1.15;;;1.15;;
67051;SDS011;53957;47.222;18.670;2022-09-30T13:11:05;1.60;;;1.50;;
67051;SDS011;53957;47.222;18.670;2022-09-30T13:14:36;1.45;;;1.35;;
67051;SDS011;53957;47.222;18.670;2022-09-30T13:17:41;1.50;;;1.40;;
67051;SDS011;53957;47.222;18.670;2022-09-30T13:20:48;1.25;;;1.15;;
67051;SDS011;53957;47.222;18.670;2022-09-30T13:23:53;1.27;;;1.17;;
67051;SDS011;53957;47.222;18.670;2022-09-30T13:27:07;1.20;;;1.10;;
67051;SDS011;53957;47.222;18.670;2022-09-30T13:33:26;1.10;;;1.10;;
67051;SDS011;53957;47.222;18.670;2022-09-30T13:39:53;1.30;;;1.20;;
67051;SDS011;53957;47.222;18.670;2022-09-30T13:42:58;1.30;;;1.30;;
67051;SDS011;53957;47.222;18.670;2022-09-30T13:46:05;1.50;;;1.40;;
67051;SDS011;53957;47.222;18.670;2022-09-30T13:49:29;1.58;;;1.40;;
67051;SDS011;53957;47.222;18.670;2022-09-30T13:52:38;1.70;;;1.60;;
67051;SDS011;53957;47.222;18.670;2022-09-30T13:55:44;1.25;;;1.25;;
67051;SDS011;53957;47.222;18.670;2022-09-30T13:58:58;2.05;;;1.85;;
67051;SDS011;53957;47.222;18.670;2022-09-30T14:06:00;4.62;;;1.70;;
67051;SDS011;53957;47.222;18.670;2022-09-30T14:09:18;1.55;;;1.45;;
67051;SDS011;53957;47.222;18.670;2022-09-30T14:22:49;1.60;;;1.50;;
67051;SDS011;53957;47.222;18.670;2022-09-30T14:26:57;1.23;;;1.23;;
67051;SDS011;53957;47.222;18.670;2022-09-30T14:30:03;2.10;;;2.00;;
67051;SDS011;53957;47.222;18.670;2022-09-30T14:33:23;3.03;;;2.70;;
67051;SDS011;53957;47.222;18.670;2022-09-30T14:36:27;3.20;;;1.90;;
67051;SDS011;53957;47.222;18.670;2022-09-30T14:39:30;1.75;;;1.65;;
67051;SDS011;53957;47.222;18.670;2022-09-30T14:42:34;1.52;;;1.42;;
67051;SDS011;53957;47.222;18.670;2022-09-30T14:45:43;1.75;;;1.65;;
67051;SDS011;53957;47.222;18.670;2022-09-30T14:48:48;13.52;;;2.53;;
67051;SDS011;53957;47.222;18.670;2022-09-30T14:51:52;3.00;;;2.25;;
67051;SDS011;53957;47.222;18.670;2022-09-30T14:54:55;4.20;;;3.25;;
67051;SDS011;53957;47.222;18.670;2022-09-30T15:01:38;12.32;;;4.72;;
67051;SDS011;53957;47.222;18.670;2022-09-30T15:04:51;11.57;;;4.62;;
67051;SDS011;53957;47.222;18.670;2022-09-30T15:08:02;8.95;;;3.45;;
67051;SDS011;53957;47.222;18.670;2022-09-30T15:11:16;9.30;;;6.93;;
67051;SDS011;53957;47.222;18.670;2022-09-30T15:14:22;10.02;;;6.00;;
67051;SDS011;53957;47.222;18.670;2022-09-30T15:17:33;30.77;;;13.13;;
67051;SDS011;53957;47.222;18.670;2022-09-30T15:20:37;13.95;;;10.52;;
67051;SDS011;53957;47.222;18.670;2022-09-30T15:23:44;10.73;;;7.50;;
67051;SDS011;53957;47.222;18.670;2022-09-30T15:26:52;17.25;;;9.35;;
67051;SDS011;53957;47.222;18.670;2022-09-30T15:30:19;8.75;;;5.97;;
67051;SDS011;53957;47.222;18.670;2022-09-30T15:33:23;5.22;;;3.78;;
67051;SDS011;53957;47.222;18.670;2022-09-30T15:36:29;6.37;;;2.30;;
67051;SDS011;53957;47.222;18.670;2022-09-30T15:39:34;11.00;;;9.55;;
67051;SDS011;53957;47.222;18.670;2022-09-30T15:43:02;28.20;;;12.45;;
67051;SDS011;53957;47.222;18.670;2022-09-30T15:49:31;19.37;;;11.65;;
67051;SDS011;53957;47.222;18.670;2022-09-30T15:52:42;13.68;;;10.10;;
67051;SDS011;53957;47.222;18.670;2022-09-30T15:55:45;17.27;;;10.52;;
67051;SDS011;53957;47.222;18.670;2022-09-30T15:58:53;20.58;;;13.32;;
67051;SDS011;53957;47.222;18.670;2022-09-30T16:02:03;20.20;;;14.52;;
67051;SDS011;53957;47.222;18.670;2022-09-30T16:05:06;23.70;;;13.45;;
67051;SDS011;53957;47.222;18.670;2022-09-30T16:08:09;14.38;;;10.25;;
67051;SDS011;53957;47.222;18.670;2022-09-30T16:11:20;15.90;;;11.18;;
67051;SDS011;53957;47.222;18.670;2022-09-30T16:14:27;34.65;;;10.63;;
67051;SDS011;53957;47.222;18.670;2022-09-30T16:17:35;28.90;;;9.32;;
67051;SDS011;53957;47.222;18.670;2022-09-30T16:20:39;30.23;;;9.23;;
67051;SDS011;53957;47.222;18.670;2022-09-30T16:23:58;12.07;;;8.13;;
67051;SDS011;53957;47.222;18.670;2022-09-30T16:27:46;18.40;;;11.88;;
67051;SDS011;53957;47.222;18.670;2022-09-30T16:30:31;22.93;;;13.90;;
67051;SDS011;53957;47.222;18.670;2022-09-30T16:33:35;28.25;;;17.37;;
67051;SDS011;53957;47.222;18.670;2022-09-30T16:36:42;38.03;;;19.83;;
67051;SDS011;53957;47.222;18.670;2022-09-30T16:39:45;21.62;;;11.23;;
67051;SDS011;53957;47.222;18.670;2022-09-30T16:42:49;42.45;;;21.25;;
67051;SDS011;53957;47.222;18.670;2022-09-30T17:11:35;30.60;;;19.52;;
67051;SDS011;53957;47.222;18.670;2022-09-30T17:14:39;42.70;;;25.15;;
67051;SDS011;53957;47.222;18.670;2022-09-30T17:17:44;43.22;;;23.35;;
67051;SDS011;53957;47.222;18.670;2022-09-30T17:20:48;57.20;;;29.17;;
67051;SDS011;53957;47.222;18.670;2022-09-30T17:23:54;33.15;;;18.45;;
67051;SDS011;53957;47.222;18.670;2022-09-30T17:26:58;35.50;;;17.90;;
67051;SDS011;53957;47.222;18.670;2022-09-30T17:30:00;58.40;;;29.15;;
67051;SDS011;53957;47.222;18.670;2022-09-30T17:33:05;63.20;;;25.75;;
67051;SDS011;53957;47.222;18.670;2022-09-30T17:36:12;48.72;;;22.35;;
67051;SDS011;53957;47.222;18.670;2022-09-30T17:39:16;32.45;;;17.00;;
67051;SDS011;53957;47.222;18.670;2022-09-30T17:42:19;21.83;;;13.90;;
67051;SDS011;53957;47.222;18.670;2022-09-30T17:45:41;19.92;;;12.43;;
67051;SDS011;53957;47.222;18.670;2022-09-30T17:48:47;21.20;;;10.85;;
67051;SDS011;53957;47.222;18.670;2022-09-30T17:51:52;21.15;;;12.20;;
67051;SDS011;53957;47.222;18.670;2022-09-30T17:54:55;19.35;;;11.50;;
67051;SDS011;53957;47.222;18.670;2022-09-30T17:57:59;25.42;;;16.87;;
67051;SDS011;53957;47.222;18.670;2022-09-30T18:01:07;25.42;;;14.35;;
67051;SDS011;53957;47.222;18.670;2022-09-30T18:04:11;21.23;;;14.82;;
67051;SDS011;53957;47.222;18.670;2022-09-30T18:07:14;26.62;;;16.83;;
67051;SDS011;53957;47.222;18.670;2022-09-30T18:10:17;30.92;;;16.55;;
67051;SDS011;53957;47.222;18.670;2022-09-30T18:13:20;23.90;;;14.55;;
67051;SDS011;53957;47.222;18.670;2022-09-30T18:16:24;24.35;;;14.65;;
67051;SDS011;53957;47.222;18.670;2022-09-30T18:19:31;22.30;;;13.07;;
67051;SDS011;53957;47.222;18.670;2022-09-30T18:22:34;21.98;;;13.93;;
67051;SDS011;53957;47.222;18.670;2022-09-30T18:25:37;20.10;;;13.62;;
67051;SDS011;53957;47.222;18.670;2022-09-30T18:28:42;21.55;;;14.20;;
67051;SDS011;53957;47.222;18.670;2022-09-30T18:31:45;16.87;;;11.85;;
67051;SDS011;53957;47.222;18.670;2022-09-30T18:34:48;16.77;;;10.50;;
67051;SDS011;53957;47.222;18.670;2022-09-30T18:37:52;14.77;;;9.73;;
67051;SDS011;53957;47.222;18.670;2022-09-30T18:40:55;14.20;;;9.55;;
67051;SDS011;53957;47.222;18.670;2022-09-30T18:43:58;11.75;;;9.20;;
67051;SDS011;53957;47.222;18.670;2022-09-30T18:47:05;13.00;;;9.68;;
67051;SDS011;53957;47.222;18.670;2022-09-30T18:50:08;11.10;;;8.95;;
67051;SDS011;53957;47.222;18.670;2022-09-30T18:53:13;10.30;;;7.93;;
67051;SDS011;53957;47.222;18.670;2022-09-30T18:56:17;10.65;;;8.35;;
67051;SDS011;53957;47.222;18.670;2022-09-30T18:59:23;86.10;;;47.67;;
67051;SDS011;53957;47.222;18.670;2022-09-30T19:02:26;40.60;;;24.75;;
67051;SDS011;53957;47.222;18.670;2022-09-30T19:05:29;25.80;;;14.45;;
67051;SDS011;53957;47.222;18.670;2022-09-30T19:08:32;30.73;;;16.37;;
67051;SDS011;53957;47.222;18.670;2022-09-30T19:11:38;22.50;;;13.73;;
67051;SDS011;53957;47.222;18.670;2022-09-30T19:14:44;17.83;;;12.40;;
67051;SDS011;53957;47.222;18.670;2022-09-30T19:17:47;14.80;;;10.95;;
67051;SDS011;53957;47.222;18.670;2022-09-30T19:20:54;11.25;;;9.38;;
67051;SDS011;53957;47.222;18.670;2022-09-30T19:23:57;11.07;;;6.10;;
67051;SDS011;53957;47.222;18.670;2022-09-30T19:27:00;10.15;;;6.80;;
67051;SDS011;53957;47.222;18.670;2022-09-30T19:30:04;10.75;;;7.12;;
67051;SDS011;53957;47.222;18.670;2022-09-30T19:33:07;8.75;;;6.07;;
67051;SDS011;53957;47.222;18.670;2022-09-30T19:36:12;8.73;;;6.45;;
67051;SDS011;53957;47.222;18.670;2022-09-30T19:39:17;13.68;;;8.40;;
67051;SDS011;53957;47.222;18.670;2022-09-30T19:42:25;12.37;;;7.90;;
67051;SDS011;53957;47.222;18.670;2022-09-30T19:45:29;13.30;;;8.50;;
67051;SDS011;53957;47.222;18.670;2022-09-30T19:48:34;15.80;;;10.70;;
67051;SDS011;53957;47.222;18.670;2022-09-30T19:51:37;16.08;;;10.77;;
67051;SDS011;53957;47.222;18.670;2022-09-30T19:54:40;10.68;;;8.55;;
67051;SDS011;53957;47.222;18.670;2022-09-30T19:57:43;19.40;;;10.20;;
67051;SDS011;53957;47.222;18.670;2022-09-30T20:00:51;36.08;;;16.02;;
67051;SDS011;53957;47.222;18.670;2022-09-30T20:03:58;45.85;;;20.60;;
67051;SDS011;53957;47.222;18.670;2022-09-30T20:07:04;31.27;;;14.70;;
67051;SDS011;53957;47.222;18.670;2022-09-30T20:10:07;14.77;;;9.07;;
67051;SDS011;53957;47.222;18.670;2022-09-30T20:13:10;4.50;;;4.10;;
67051;SDS011;53957;47.222;18.670;2022-09-30T20:16:13;4.40;;;4.00;;
67051;SDS011;53957;47.222;18.670;2022-09-30T20:19:17;4.47;;;4.07;;
67051;SDS011;53957;47.222;18.670;2022-09-30T20:22:21;11.12;;;5.85;;
67051;SDS011;53957;47.222;18.670;2022-09-30T20:25:32;6.85;;;6.15;;
67051;SDS011;53957;47.222;18.670;2022-09-30T20:28:36;6.18;;;4.95;;
67051;SDS011;53957;47.222;18.670;2022-09-30T20:31:40;6.28;;;5.65;;
67051;SDS011;53957;47.222;18.670;2022-09-30T20:35:07;6.07;;;4.15;;
67051;SDS011;53957;47.222;18.670;2022-09-30T20:38:10;5.35;;;4.62;;
67051;SDS011;53957;47.222;18.670;2022-09-30T20:41:15;6.70;;;3.90;;
67051;SDS011;53957;47.222;18.670;2022-09-30T20:44:18;4.20;;;3.80;;
67051;SDS011;53957;47.222;18.670;2022-09-30T20:47:22;4.60;;;4.20;;
67051;SDS011;53957;47.222;18.670;2022-09-30T20:50:26;4.72;;;4.28;;
67051;SDS011;53957;47.222;18.670;2022-09-30T20:53:38;5.35;;;4.85;;
67051;SDS011;53957;47.222;18.670;2022-09-30T20:56:41;4.95;;;4.45;;
67051;SDS011;53957;47.222;18.670;2022-09-30T21:00:04;4.03;;;3.72;;
67051;SDS011;53957;47.222;18.670;2022-09-30T21:03:09;3.90;;;3.60;;
67051;SDS011;53957;47.222;18.670;2022-09-30T21:06:14;4.50;;;3.85;;
67051;SDS011;53957;47.222;18.670;2022-09-30T21:09:18;8.02;;;4.05;;
67051;SDS011;53957;47.222;18.670;2022-09-30T21:12:23;4.20;;;3.60;;
67051;SDS011;53957;47.222;18.670;2022-09-30T21:15:26;4.15;;;3.80;;
67051;SDS011;53957;47.222;18.670;2022-09-30T21:18:30;5.18;;;4.10;;
67051;SDS011;53957;47.222;18.670;2022-09-30T21:21:33;4.80;;;4.30;;
67051;SDS011;53957;47.222;18.670;2022-09-30T21:24:37;4.43;;;4.03;;
67051;SDS011;53957;47.222;18.670;2022-09-30T21:27:46;3.70;;;3.40;;
67051;SDS011;53957;47.222;18.670;2022-09-30T21:31:13;4.22;;;3.92;;
67051;SDS011;53957;47.222;18.670;2022-09-30T21:34:21;4.03;;;3.70;;
67051;SDS011;53957;47.222;18.670;2022-09-30T21:37:25;4.68;;;3.80;;
67051;SDS011;53957;47.222;18.670;2022-09-30T21:40:28;4.22;;;3.83;;
67051;SDS011;53957;47.222;18.670;2022-09-30T21:43:31;3.97;;;3.58;;
